Aérodrome :
LOGIN :

S'inscrire | Disclaimer

   EN    FR    IT 

 










Légende :    VFR   VFR Marginal   IFR   IFR Intensif   IFR Très Intensif
Visi : 
Plafond : 
>= 8 km
>= 3000ft
5 à 8 km
1000 à 3000 ft
1500m à 5 km
500 à 1000 ft
800 à 1500m
200 à 500 ft
< 800m
< 200 ft
Symboles :   Orages  Brouillard  Fortes neiges  Fortes précipitations  Vent > 20 kt
SIGMETs :   Divers  Orages  Givrage  Turbulence  Onde Orograph.  Cendres Volcan.







- Altitude de l'aérodrome : 160 ft
- Code IATA : LRT
- Voir les cartes d'approche


LFRH - Lorient Lann Bihoue

DERNIER METAR :
  • 241330Z AUTO 21008KT 4900 -DZ BR OVC002 17/17 Q1018 TEMPO VV/// BECMG 2000 -RADZ

METARs EXPIRÉS :
  • 241300Z AUTO 21009KT 7000 -RA OVC002 17/17 Q1018 TEMPO 1000 BR VV///
  • 241230Z AUTO 22010KT 2400 RA BR OVC002 17/17 Q1018 TEMPO 1000 BR VV///
  • 241200Z AUTO 21008KT 2100 -RA BR OVC002 17/17 Q1018 TEMPO 1000 BR VV///
  • 241130Z AUTO 21009KT 1400 1100 R25/P2000 R07/1800N -RA BR VV/// 17/17 Q1018 NOSIG
  • 241100Z AUTO 21008KT 1900 -RA BR VV/// 17/17 Q1018 TEMPO 0800 FG BECMG BKN003 OVC008

TAF TAF LFRH
Valide du 24 à 12h jusqu'au 25 à 12h UTC


241100Z 2412/2512 20007KT 2000 -RADZ OVC002
TEMPO 2412/2415 1000 BR VV///
BECMG 2418/2420 4000 -RA BKN005 OVC008
TEMPO 2420/2423 1000 +RA OVC003
BECMG 2502/2504 35010KT 9999 NSW BKN008 OVC010
BECMG 2509/2511 SCT015 SCT025
Pas de NOTAMs connus pour ce terrain.



MET'MAP, la Météo Aéronautique d'un coup d'oeil ! - Copyright ORBIFLY Décembre 2007 - Disclaimer

ORBIFLY MET'MAP TEAM :

Programmation & Développement : Alexandra Zaïnal
Conception & Développement : Baudouin d'Aumeries
Co-Programmation & Développement : Marc-Olivier Méhu
Soutien technique & logistique : Manuel Goepfert

Contact : metmap@orbifly.com




SOURCES & CREDITS :

   NOAA